sensor_id;sensor_type;location;lat;lon;timestamp;temperature;humidity
41985;DHT22;28319;48.116;10.818;2023-04-15T00:00:57;5.90;99.90
41985;DHT22;28319;48.116;10.818;2023-04-15T00:06:01;6.00;99.90
41985;DHT22;28319;48.116;10.818;2023-04-15T00:11:03;6.00;99.90
41985;DHT22;28319;48.116;10.818;2023-04-15T00:16:07;5.90;99.90
41985;DHT22;28319;48.116;10.818;2023-04-15T00:21:10;5.90;99.90
41985;DHT22;28319;48.116;10.818;2023-04-15T00:26:12;5.90;99.90
41985;DHT22;28319;48.116;10.818;2023-04-15T00:31:14;5.90;99.90
41985;DHT22;28319;48.116;10.818;2023-04-15T00:36:18;5.90;99.90
41985;DHT22;28319;48.116;10.818;2023-04-15T00:41:20;5.80;99.90
41985;DHT22;28319;48.116;10.818;2023-04-15T00:46:22;5.90;99.90
41985;DHT22;28319;48.116;10.818;2023-04-15T00:51:27;5.70;99.90
41985;DHT22;28319;48.116;10.818;2023-04-15T00:56:29;5.70;99.90
41985;DHT22;28319;48.116;10.818;2023-04-15T01:01:32;5.60;99.90
41985;DHT22;28319;48.116;10.818;2023-04-15T01:06:36;5.60;99.90
41985;DHT22;28319;48.116;10.818;2023-04-15T01:11:38;5.70;99.90
41985;DHT22;28319;48.116;10.818;2023-04-15T01:16:40;5.60;99.90
41985;DHT22;28319;48.116;10.818;2023-04-15T01:21:44;5.50;99.90
41985;DHT22;28319;48.116;10.818;2023-04-15T01:26:48;5.50;99.90
41985;DHT22;28319;48.116;10.818;2023-04-15T01:31:51;5.50;99.90
41985;DHT22;28319;48.116;10.818;2023-04-15T01:36:53;5.40;99.90
41985;DHT22;28319;48.116;10.818;2023-04-15T01:41:56;5.30;99.90
41985;DHT22;28319;48.116;10.818;2023-04-15T01:46:58;5.40;99.90
41985;DHT22;28319;48.116;10.818;2023-04-15T01:52:00;5.30;99.90
41985;DHT22;28319;48.116;10.818;2023-04-15T01:57:04;5.20;99.90
41985;DHT22;28319;48.116;10.818;2023-04-15T02:02:06;5.00;99.90
41985;DHT22;28319;48.116;10.818;2023-04-15T02:07:10;5.00;99.90
41985;DHT22;28319;48.116;10.818;2023-04-15T02:12:14;5.00;99.90
41985;DHT22;28319;48.116;10.818;2023-04-15T02:17:16;5.00;99.90
41985;DHT22;28319;48.116;10.818;2023-04-15T02:22:18;5.00;99.90
41985;DHT22;28319;48.116;10.818;2023-04-15T02:27:22;5.00;99.90
41985;DHT22;28319;48.116;10.818;2023-04-15T02:32:24;5.00;99.90
41985;DHT22;28319;48.116;10.818;2023-04-15T02:37:26;5.00;99.90
41985;DHT22;28319;48.116;10.818;2023-04-15T02:42:31;5.00;99.90
41985;DHT22;28319;48.116;10.818;2023-04-15T02:47:33;5.00;99.90
41985;DHT22;28319;48.116;10.818;2023-04-15T02:52:35;4.90;99.90
41985;DHT22;28319;48.116;10.818;2023-04-15T02:57:39;5.00;99.90
41985;DHT22;28319;48.116;10.818;2023-04-15T03:02:41;5.00;99.90
41985;DHT22;28319;48.116;10.818;2023-04-15T03:07:43;5.00;99.90
41985;DHT22;28319;48.116;10.818;2023-04-15T03:12:47;4.90;99.90
41985;DHT22;28319;48.116;10.818;2023-04-15T03:17:49;4.90;99.90
41985;DHT22;28319;48.116;10.818;2023-04-15T03:22:51;4.80;99.90
41985;DHT22;28319;48.116;10.818;2023-04-15T03:27:54;4.80;99.90
41985;DHT22;28319;48.116;10.818;2023-04-15T03:32:56;4.70;99.90
41985;DHT22;28319;48.116;10.818;2023-04-15T03:37:58;4.60;99.90
41985;DHT22;28319;48.116;10.818;2023-04-15T03:43:01;4.80;99.90
41985;DHT22;28319;48.116;10.818;2023-04-15T03:48:04;4.60;99.90
41985;DHT22;28319;48.116;10.818;2023-04-15T03:53:06;4.70;99.90
41985;DHT22;28319;48.116;10.818;2023-04-15T03:58:12;4.60;99.90
41985;DHT22;28319;48.116;10.818;2023-04-15T04:03:14;4.60;99.90
41985;DHT22;28319;48.116;10.818;2023-04-15T04:08:16;4.60;99.90
41985;DHT22;28319;48.116;10.818;2023-04-15T04:13:20;4.60;99.90
41985;DHT22;28319;48.116;10.818;2023-04-15T04:18:22;4.50;99.90
41985;DHT22;28319;48.116;10.818;2023-04-15T04:23:24;4.60;99.90
41985;DHT22;28319;48.116;10.818;2023-04-15T04:28:28;4.60;99.90
41985;DHT22;28319;48.116;10.818;2023-04-15T04:33:30;4.60;99.90
41985;DHT22;28319;48.116;10.818;2023-04-15T04:38:34;4.60;99.90
41985;DHT22;28319;48.116;10.818;2023-04-15T04:43:37;4.60;99.90
41985;DHT22;28319;48.116;10.818;2023-04-15T04:48:39;4.50;99.90
41985;DHT22;28319;48.116;10.818;2023-04-15T04:53:41;4.40;99.90
41985;DHT22;28319;48.116;10.818;2023-04-15T04:58:45;4.40;99.90
41985;DHT22;28319;48.116;10.818;2023-04-15T05:03:47;4.50;99.90
41985;DHT22;28319;48.116;10.818;2023-04-15T05:08:49;4.50;99.90
41985;DHT22;28319;48.116;10.818;2023-04-15T05:13:52;4.60;99.90
41985;DHT22;28319;48.116;10.818;2023-04-15T05:18:54;4.60;99.90
41985;DHT22;28319;48.116;10.818;2023-04-15T05:23:56;4.50;99.90
41985;DHT22;28319;48.116;10.818;2023-04-15T05:28:59;4.60;99.90
41985;DHT22;28319;48.116;10.818;2023-04-15T05:34:01;4.60;99.90
41985;DHT22;28319;48.116;10.818;2023-04-15T05:39:04;4.60;99.90
41985;DHT22;28319;48.116;10.818;2023-04-15T05:44:08;4.50;99.90
41985;DHT22;28319;48.116;10.818;2023-04-15T05:49:10;4.50;99.90
41985;DHT22;28319;48.116;10.818;2023-04-15T05:54:12;4.50;99.90
41985;DHT22;28319;48.116;10.818;2023-04-15T05:59:15;4.70;99.90
41985;DHT22;28319;48.116;10.818;2023-04-15T06:04:17;4.80;99.90
41985;DHT22;28319;48.116;10.818;2023-04-15T06:09:19;4.90;99.90
41985;DHT22;28319;48.116;10.818;2023-04-15T06:14:23;5.00;99.90
41985;DHT22;28319;48.116;10.818;2023-04-15T06:19:26;5.10;99.90
41985;DHT22;28319;48.116;10.818;2023-04-15T06:24:29;5.20;99.90
41985;DHT22;28319;48.116;10.818;2023-04-15T06:29:34;5.20;99.90
41985;DHT22;28319;48.116;10.818;2023-04-15T06:34:35;5.30;99.90
41985;DHT22;28319;48.116;10.818;2023-04-15T06:39:37;5.30;99.90
41985;DHT22;28319;48.116;10.818;2023-04-15T06:44:41;5.30;99.90
41985;DHT22;28319;48.116;10.818;2023-04-15T06:49:43;5.40;99.90
41985;DHT22;28319;48.116;10.818;2023-04-15T06:54:45;5.40;99.90
41985;DHT22;28319;48.116;10.818;2023-04-15T06:59:48;5.50;99.90
41985;DHT22;28319;48.116;10.818;2023-04-15T07:04:52;5.60;99.90
41985;DHT22;28319;48.116;10.818;2023-04-15T07:09:55;5.60;99.90
41985;DHT22;28319;48.116;10.818;2023-04-15T07:14:58;5.80;99.90
41985;DHT22;28319;48.116;10.818;2023-04-15T07:20:00;5.90;99.90
41985;DHT22;28319;48.116;10.818;2023-04-15T07:25:04;6.00;99.90
41985;DHT22;28319;48.116;10.818;2023-04-15T07:30:09;6.10;99.90
41985;DHT22;28319;48.116;10.818;2023-04-15T07:35:12;6.30;99.90
41985;DHT22;28319;48.116;10.818;2023-04-15T07:40:14;6.50;99.90
41985;DHT22;28319;48.116;10.818;2023-04-15T07:45:18;6.60;99.90
41985;DHT22;28319;48.116;10.818;2023-04-15T07:50:20;6.70;99.90
41985;DHT22;28319;48.116;10.818;2023-04-15T07:55:22;6.90;99.90
41985;DHT22;28319;48.116;10.818;2023-04-15T08:00:26;7.00;99.90
41985;DHT22;28319;48.116;10.818;2023-04-15T08:05:28;7.10;99.90
41985;DHT22;28319;48.116;10.818;2023-04-15T08:10:30;7.40;99.90
41985;DHT22;28319;48.116;10.818;2023-04-15T08:15:35;7.40;99.90
41985;DHT22;28319;48.116;10.818;2023-04-15T08:20:37;7.60;99.90
41985;DHT22;28319;48.116;10.818;2023-04-15T08:25:39;7.70;99.90
41985;DHT22;28319;48.116;10.818;2023-04-15T08:30:43;7.90;99.90
41985;DHT22;28319;48.116;10.818;2023-04-15T08:35:45;8.00;99.90
41985;DHT22;28319;48.116;10.818;2023-04-15T08:40:47;8.30;99.90
41985;DHT22;28319;48.116;10.818;2023-04-15T08:45:51;8.50;99.90
41985;DHT22;28319;48.116;10.818;2023-04-15T08:50:54;8.50;99.90
41985;DHT22;28319;48.116;10.818;2023-04-15T08:55:57;8.70;99.90
41985;DHT22;28319;48.116;10.818;2023-04-15T09:01:02;8.80;99.90
41985;DHT22;28319;48.116;10.818;2023-04-15T09:06:04;8.80;99.90
41985;DHT22;28319;48.116;10.818;2023-04-15T09:11:07;9.00;99.90
41985;DHT22;28319;48.116;10.818;2023-04-15T09:16:10;9.20;99.90
41985;DHT22;28319;48.116;10.818;2023-04-15T09:21:15;9.20;99.90
41985;DHT22;28319;48.116;10.818;2023-04-15T09:26:18;9.30;99.90
41985;DHT22;28319;48.116;10.818;2023-04-15T09:31:28;9.40;99.90
41985;DHT22;28319;48.116;10.818;2023-04-15T09:36:37;9.50;99.90
41985;DHT22;28319;48.116;10.818;2023-04-15T09:41:42;9.60;99.90
41985;DHT22;28319;48.116;10.818;2023-04-15T09:46:46;9.60;99.90
41985;DHT22;28319;48.116;10.818;2023-04-15T09:51:47;9.70;99.90
41985;DHT22;28319;48.116;10.818;2023-04-15T09:56:50;9.70;99.90
41985;DHT22;28319;48.116;10.818;2023-04-15T10:01:53;9.80;99.90
41985;DHT22;28319;48.116;10.818;2023-04-15T10:06:56;9.70;99.90
41985;DHT22;28319;48.116;10.818;2023-04-15T10:11:58;9.80;99.90
41985;DHT22;28319;48.116;10.818;2023-04-15T10:17:03;10.00;99.90
41985;DHT22;28319;48.116;10.818;2023-04-15T10:22:06;10.00;99.90
41985;DHT22;28319;48.116;10.818;2023-04-15T10:27:09;9.80;99.90
41985;DHT22;28319;48.116;10.818;2023-04-15T10:32:13;9.80;99.90
41985;DHT22;28319;48.116;10.818;2023-04-15T10:37:20;10.00;99.90
41985;DHT22;28319;48.116;10.818;2023-04-15T10:42:23;10.00;99.90
41985;DHT22;28319;48.116;10.818;2023-04-15T10:47:26;10.00;99.90
41985;DHT22;28319;48.116;10.818;2023-04-15T10:52:28;10.10;99.90
41985;DHT22;28319;48.116;10.818;2023-04-15T10:57:33;10.20;99.90
41985;DHT22;28319;48.116;10.818;2023-04-15T11:02:54;10.70;99.90
41985;DHT22;28319;48.116;10.818;2023-04-15T11:07:57;11.20;99.90
41985;DHT22;28319;48.116;10.818;2023-04-15T11:13:01;11.10;99.90
41985;DHT22;28319;48.116;10.818;2023-04-15T11:18:10;11.40;98.90
41985;DHT22;28319;48.116;10.818;2023-04-15T11:23:13;11.10;99.90
41985;DHT22;28319;48.116;10.818;2023-04-15T11:28:16;10.60;99.90
41985;DHT22;28319;48.116;10.818;2023-04-15T11:33:20;9.40;99.90
41985;DHT22;28319;48.116;10.818;2023-04-15T11:38:22;8.70;99.90
41985;DHT22;28319;48.116;10.818;2023-04-15T11:43:24;8.20;99.90
41985;DHT22;28319;48.116;10.818;2023-04-15T11:48:30;8.30;99.90
41985;DHT22;28319;48.116;10.818;2023-04-15T11:53:37;8.30;99.90
41985;DHT22;28319;48.116;10.818;2023-04-15T11:58:40;8.20;99.90
41985;DHT22;28319;48.116;10.818;2023-04-15T12:03:45;8.10;99.90
41985;DHT22;28319;48.116;10.818;2023-04-15T12:09:03;8.10;99.90
41985;DHT22;28319;48.116;10.818;2023-04-15T12:14:10;8.00;99.90
41985;DHT22;28319;48.116;10.818;2023-04-15T12:19:16;8.30;99.90
41985;DHT22;28319;48.116;10.818;2023-04-15T12:24:20;8.40;99.90
41985;DHT22;28319;48.116;10.818;2023-04-15T12:29:25;8.50;99.90
41985;DHT22;28319;48.116;10.818;2023-04-15T12:34:30;8.60;99.90
41985;DHT22;28319;48.116;10.818;2023-04-15T12:39:35;8.70;99.90
41985;DHT22;28319;48.116;10.818;2023-04-15T12:44:38;8.80;99.90
41985;DHT22;28319;48.116;10.818;2023-04-15T12:49:42;8.90;99.90
41985;DHT22;28319;48.116;10.818;2023-04-15T12:54:44;9.20;99.90
41985;DHT22;28319;48.116;10.818;2023-04-15T12:59:45;9.40;99.90
41985;DHT22;28319;48.116;10.818;2023-04-15T13:04:49;9.50;99.90
41985;DHT22;28319;48.116;10.818;2023-04-15T13:09:51;9.70;99.90
41985;DHT22;28319;48.116;10.818;2023-04-15T13:14:53;9.70;99.90
41985;DHT22;28319;48.116;10.818;2023-04-15T13:19:57;9.90;99.90
41985;DHT22;28319;48.116;10.818;2023-04-15T13:24:59;9.70;99.90
41985;DHT22;28319;48.116;10.818;2023-04-15T13:30:01;9.60;99.90
41985;DHT22;28319;48.116;10.818;2023-04-15T13:35:05;9.60;99.90
41985;DHT22;28319;48.116;10.818;2023-04-15T13:40:08;9.60;99.90
41985;DHT22;28319;48.116;10.818;2023-04-15T13:45:10;9.50;99.90
41985;DHT22;28319;48.116;10.818;2023-04-15T13:50:14;9.50;99.90
41985;DHT22;28319;48.116;10.818;2023-04-15T13:55:16;9.50;99.90
41985;DHT22;28319;48.116;10.818;2023-04-15T14:00:18;9.30;99.90
41985;DHT22;28319;48.116;10.818;2023-04-15T14:05:21;9.40;99.90
41985;DHT22;28319;48.116;10.818;2023-04-15T14:10:23;9.60;99.90
41985;DHT22;28319;48.116;10.818;2023-04-15T14:15:25;9.60;99.90
41985;DHT22;28319;48.116;10.818;2023-04-15T14:20:29;9.60;99.90
41985;DHT22;28319;48.116;10.818;2023-04-15T14:25:31;9.50;99.90
41985;DHT22;28319;48.116;10.818;2023-04-15T14:30:33;9.30;99.90
41985;DHT22;28319;48.116;10.818;2023-04-15T14:35:36;9.30;99.90
41985;DHT22;28319;48.116;10.818;2023-04-15T14:40:39;9.40;99.90
41985;DHT22;28319;48.116;10.818;2023-04-15T14:45:42;9.30;99.90
41985;DHT22;28319;48.116;10.818;2023-04-15T14:50:45;9.40;99.90
41985;DHT22;28319;48.116;10.818;2023-04-15T14:55:47;9.40;99.90
41985;DHT22;28319;48.116;10.818;2023-04-15T15:00:49;9.40;99.90
41985;DHT22;28319;48.116;10.818;2023-04-15T15:05:53;9.30;99.90
41985;DHT22;28319;48.116;10.818;2023-04-15T15:10:57;9.20;99.90
41985;DHT22;28319;48.116;10.818;2023-04-15T15:15:59;9.10;99.90
41985;DHT22;28319;48.116;10.818;2023-04-15T15:21:02;9.00;99.90
41985;DHT22;28319;48.116;10.818;2023-04-15T15:26:05;8.90;99.90
41985;DHT22;28319;48.116;10.818;2023-04-15T15:31:07;8.90;99.90
41985;DHT22;28319;48.116;10.818;2023-04-15T15:36:10;8.70;99.90
41985;DHT22;28319;48.116;10.818;2023-04-15T15:41:12;8.30;99.90
41985;DHT22;28319;48.116;10.818;2023-04-15T15:46:15;8.20;99.90
41985;DHT22;28319;48.116;10.818;2023-04-15T15:51:21;8.10;99.90
41985;DHT22;28319;48.116;10.818;2023-04-15T15:56:23;8.00;99.90
41985;DHT22;28319;48.116;10.818;2023-04-15T16:01:26;7.90;99.90
41985;DHT22;28319;48.116;10.818;2023-04-15T16:06:29;7.90;99.90
41985;DHT22;28319;48.116;10.818;2023-04-15T16:11:32;7.90;99.90
41985;DHT22;28319;48.116;10.818;2023-04-15T16:16:34;7.80;99.90
41985;DHT22;28319;48.116;10.818;2023-04-15T16:21:37;7.80;99.90
41985;DHT22;28319;48.116;10.818;2023-04-15T16:26:39;7.80;99.90
41985;DHT22;28319;48.116;10.818;2023-04-15T16:31:41;7.60;99.90
41985;DHT22;28319;48.116;10.818;2023-04-15T16:36:45;7.60;99.90
41985;DHT22;28319;48.116;10.818;2023-04-15T16:41:47;7.50;99.90
41985;DHT22;28319;48.116;10.818;2023-04-15T16:46:49;7.50;99.90
41985;DHT22;28319;48.116;10.818;2023-04-15T16:51:52;7.40;99.90
41985;DHT22;28319;48.116;10.818;2023-04-15T16:56:55;7.30;99.90
41985;DHT22;28319;48.116;10.818;2023-04-15T17:01:58;7.30;99.90
41985;DHT22;28319;48.116;10.818;2023-04-15T17:07:01;7.20;99.90
41985;DHT22;28319;48.116;10.818;2023-04-15T17:12:04;7.20;99.90
41985;DHT22;28319;48.116;10.818;2023-04-15T17:17:07;7.00;99.90
41985;DHT22;28319;48.116;10.818;2023-04-15T17:22:10;7.00;99.90
41985;DHT22;28319;48.116;10.818;2023-04-15T17:27:13;6.90;99.90
41985;DHT22;28319;48.116;10.818;2023-04-15T17:32:15;7.00;99.90
41985;DHT22;28319;48.116;10.818;2023-04-15T17:37:18;6.90;99.90
41985;DHT22;28319;48.116;10.818;2023-04-15T17:42:20;6.90;99.90
41985;DHT22;28319;48.116;10.818;2023-04-15T17:47:22;6.90;99.90
41985;DHT22;28319;48.116;10.818;2023-04-15T17:52:25;6.80;99.90
41985;DHT22;28319;48.116;10.818;2023-04-15T17:57:27;6.90;99.90
41985;DHT22;28319;48.116;10.818;2023-04-15T18:02:29;6.90;99.90
41985;DHT22;28319;48.116;10.818;2023-04-15T18:07:33;6.90;99.90
41985;DHT22;28319;48.116;10.818;2023-04-15T18:12:35;6.90;99.90
41985;DHT22;28319;48.116;10.818;2023-04-15T18:17:38;6.70;99.90
41985;DHT22;28319;48.116;10.818;2023-04-15T18:22:41;6.70;99.90
41985;DHT22;28319;48.116;10.818;2023-04-15T18:27:43;6.60;99.90
41985;DHT22;28319;48.116;10.818;2023-04-15T18:32:45;6.60;99.90
41985;DHT22;28319;48.116;10.818;2023-04-15T18:37:49;6.60;99.90
41985;DHT22;28319;48.116;10.818;2023-04-15T18:42:51;6.60;99.90
41985;DHT22;28319;48.116;10.818;2023-04-15T18:47:53;6.60;99.90
41985;DHT22;28319;48.116;10.818;2023-04-15T18:52:56;6.60;99.90
41985;DHT22;28319;48.116;10.818;2023-04-15T18:57:58;6.60;99.90
41985;DHT22;28319;48.116;10.818;2023-04-15T19:03:00;6.60;99.90
41985;DHT22;28319;48.116;10.818;2023-04-15T19:08:04;6.50;99.90
41985;DHT22;28319;48.116;10.818;2023-04-15T19:13:07;6.50;99.90
41985;DHT22;28319;48.116;10.818;2023-04-15T19:18:08;6.50;99.90
41985;DHT22;28319;48.116;10.818;2023-04-15T19:23:12;6.40;99.90
41985;DHT22;28319;48.116;10.818;2023-04-15T19:28:14;6.40;99.90
41985;DHT22;28319;48.116;10.818;2023-04-15T19:33:16;6.40;99.90
41985;DHT22;28319;48.116;10.818;2023-04-15T19:38:19;6.30;99.90
41985;DHT22;28319;48.116;10.818;2023-04-15T19:43:21;6.30;99.90
41985;DHT22;28319;48.116;10.818;2023-04-15T19:48:24;6.30;99.90
41985;DHT22;28319;48.116;10.818;2023-04-15T19:53:28;6.40;99.90
41985;DHT22;28319;48.116;10.818;2023-04-15T19:58:30;6.40;99.90
41985;DHT22;28319;48.116;10.818;2023-04-15T20:03:32;6.40;99.90
41985;DHT22;28319;48.116;10.818;2023-04-15T20:08:35;6.40;99.90
41985;DHT22;28319;48.116;10.818;2023-04-15T20:13:37;6.20;99.90
41985;DHT22;28319;48.116;10.818;2023-04-15T20:18:39;6.10;99.90
41985;DHT22;28319;48.116;10.818;2023-04-15T20:23:43;6.10;99.90
41985;DHT22;28319;48.116;10.818;2023-04-15T20:28:45;6.10;99.90
41985;DHT22;28319;48.116;10.818;2023-04-15T20:33:47;6.00;99.90
41985;DHT22;28319;48.116;10.818;2023-04-15T20:38:50;6.00;99.90
41985;DHT22;28319;48.116;10.818;2023-04-15T20:43:54;6.00;99.90
41985;DHT22;28319;48.116;10.818;2023-04-15T20:48:56;5.90;99.90
41985;DHT22;28319;48.116;10.818;2023-04-15T20:54:00;5.90;99.90
41985;DHT22;28319;48.116;10.818;2023-04-15T20:59:02;5.80;99.90
41985;DHT22;28319;48.116;10.818;2023-04-15T21:04:04;5.80;99.90
41985;DHT22;28319;48.116;10.818;2023-04-15T21:09:07;5.70;99.90
41985;DHT22;28319;48.116;10.818;2023-04-15T21:14:09;5.70;99.90
41985;DHT22;28319;48.116;10.818;2023-04-15T21:19:11;5.80;99.90
41985;DHT22;28319;48.116;10.818;2023-04-15T21:24:15;5.80;99.90
41985;DHT22;28319;48.116;10.818;2023-04-15T21:29:17;5.80;99.90
41985;DHT22;28319;48.116;10.818;2023-04-15T21:34:19;5.70;99.90
41985;DHT22;28319;48.116;10.818;2023-04-15T21:39:22;5.70;99.90
41985;DHT22;28319;48.116;10.818;2023-04-15T21:44:26;5.60;99.90
41985;DHT22;28319;48.116;10.818;2023-04-15T21:49:28;5.70;99.90
41985;DHT22;28319;48.116;10.818;2023-04-15T21:54:31;5.70;99.90
41985;DHT22;28319;48.116;10.818;2023-04-15T21:59:33;5.70;99.90
41985;DHT22;28319;48.116;10.818;2023-04-15T22:04:35;5.60;99.90
41985;DHT22;28319;48.116;10.818;2023-04-15T22:09:38;5.60;99.90
41985;DHT22;28319;48.116;10.818;2023-04-15T22:14:40;5.70;99.90
41985;DHT22;28319;48.116;10.818;2023-04-15T22:19:42;5.70;99.90
41985;DHT22;28319;48.116;10.818;2023-04-15T22:24:46;5.80;99.90
41985;DHT22;28319;48.116;10.818;2023-04-15T22:29:48;5.60;99.90
41985;DHT22;28319;48.116;10.818;2023-04-15T22:34:50;5.60;99.90
41985;DHT22;28319;48.116;10.818;2023-04-15T22:39:54;5.60;99.90
41985;DHT22;28319;48.116;10.818;2023-04-15T22:44:55;5.60;99.90
41985;DHT22;28319;48.116;10.818;2023-04-15T22:49:58;5.60;99.90
41985;DHT22;28319;48.116;10.818;2023-04-15T22:55:01;5.60;99.90
41985;DHT22;28319;48.116;10.818;2023-04-15T23:00:04;5.60;99.90
41985;DHT22;28319;48.116;10.818;2023-04-15T23:05:07;5.70;99.90
41985;DHT22;28319;48.116;10.818;2023-04-15T23:10:11;5.60;99.90
41985;DHT22;28319;48.116;10.818;2023-04-15T23:15:13;5.60;99.90
41985;DHT22;28319;48.116;10.818;2023-04-15T23:20:15;5.60;99.90
41985;DHT22;28319;48.116;10.818;2023-04-15T23:25:18;5.50;99.90
41985;DHT22;28319;48.116;10.818;2023-04-15T23:30:21;5.40;99.90
41985;DHT22;28319;48.116;10.818;2023-04-15T23:35:23;5.50;99.90
41985;DHT22;28319;48.116;10.818;2023-04-15T23:40:28;5.40;99.90
41985;DHT22;28319;48.116;10.818;2023-04-15T23:45:30;5.50;99.90
41985;DHT22;28319;48.116;10.818;2023-04-15T23:50:32;5.50;99.90
41985;DHT22;28319;48.116;10.818;2023-04-15T23:55:36;5.50;99.90
